sensor_id;sensor_type;location;lat;lon;timestamp;temperature;humidity
12632;DHT22;6381;45.748;12.106;2024-01-30T02:09:43;3.80;99.90
12632;DHT22;6381;45.748;12.106;2024-01-30T02:12:13;3.90;99.90
12632;DHT22;6381;45.748;12.106;2024-01-30T07:56:18;6.30;91.60
12632;DHT22;6381;45.748;12.106;2024-01-30T07:58:48;6.50;72.30
12632;DHT22;6381;45.748;12.106;2024-01-30T08:01:19;6.60;70.60
12632;DHT22;6381;45.748;12.106;2024-01-30T08:13:54;7.60;64.40
12632;DHT22;6381;45.748;12.106;2024-01-30T08:16:24;7.60;64.30
12632;DHT22;6381;45.748;12.106;2024-01-30T08:18:53;8.00;64.30
12632;DHT22;6381;45.748;12.106;2024-01-30T08:21:26;8.30;64.60
12632;DHT22;6381;45.748;12.106;2024-01-30T08:23:57;8.30;63.50
12632;DHT22;6381;45.748;12.106;2024-01-30T08:26:27;8.20;63.90
12632;DHT22;6381;45.748;12.106;2024-01-30T08:28:57;8.20;67.50
12632;DHT22;6381;45.748;12.106;2024-01-30T08:31:27;8.30;70.60
12632;DHT22;6381;45.748;12.106;2024-01-30T08:33:57;8.10;73.20
12632;DHT22;6381;45.748;12.106;2024-01-30T08:36:27;8.00;73.50
12632;DHT22;6381;45.748;12.106;2024-01-30T08:38:58;8.30;72.50
12632;DHT22;6381;45.748;12.106;2024-01-30T08:41:31;8.40;70.10
12632;DHT22;6381;45.748;12.106;2024-01-30T08:44:01;8.40;66.50
12632;DHT22;6381;45.748;12.106;2024-01-30T08:46:32;8.40;64.70
12632;DHT22;6381;45.748;12.106;2024-01-30T08:49:02;8.50;64.40
12632;DHT22;6381;45.748;12.106;2024-01-30T08:51:32;8.40;62.70
12632;DHT22;6381;45.748;12.106;2024-01-30T08:54:04;8.60;64.10
12632;DHT22;6381;45.748;12.106;2024-01-30T08:56:34;8.50;62.50
12632;DHT22;6381;45.748;12.106;2024-01-30T08:59:04;8.60;62.30
12632;DHT22;6381;45.748;12.106;2024-01-30T09:01:35;8.70;61.30
12632;DHT22;6381;45.748;12.106;2024-01-30T09:04:07;9.00;61.00
12632;DHT22;6381;45.748;12.106;2024-01-30T09:06:37;8.70;60.10
12632;DHT22;6381;45.748;12.106;2024-01-30T09:09:09;8.70;60.30
12632;DHT22;6381;45.748;12.106;2024-01-30T09:11:39;8.80;59.10
12632;DHT22;6381;45.748;12.106;2024-01-30T09:14:09;8.70;58.30
12632;DHT22;6381;45.748;12.106;2024-01-30T09:16:39;8.70;57.60
12632;DHT22;6381;45.748;12.106;2024-01-30T09:19:09;8.90;60.80
12632;DHT22;6381;45.748;12.106;2024-01-30T09:21:39;8.90;59.90
12632;DHT22;6381;45.748;12.106;2024-01-30T09:24:10;8.70;60.00
12632;DHT22;6381;45.748;12.106;2024-01-30T09:26:40;8.70;59.40
12632;DHT22;6381;45.748;12.106;2024-01-30T09:29:10;9.00;60.00
12632;DHT22;6381;45.748;12.106;2024-01-30T09:31:43;8.90;60.80
12632;DHT22;6381;45.748;12.106;2024-01-30T09:34:14;9.20;62.10
12632;DHT22;6381;45.748;12.106;2024-01-30T09:36:43;9.00;61.70
12632;DHT22;6381;45.748;12.106;2024-01-30T09:39:15;9.00;62.10
12632;DHT22;6381;45.748;12.106;2024-01-30T09:41:51;9.60;61.60
12632;DHT22;6381;45.748;12.106;2024-01-30T09:44:26;9.70;57.70
12632;DHT22;6381;45.748;12.106;2024-01-30T09:46:57;9.80;57.10
12632;DHT22;6381;45.748;12.106;2024-01-30T09:49:32;10.00;59.30
12632;DHT22;6381;45.748;12.106;2024-01-30T09:52:02;10.10;59.10
12632;DHT22;6381;45.748;12.106;2024-01-30T09:54:35;10.20;54.00
12632;DHT22;6381;45.748;12.106;2024-01-30T09:57:05;10.10;55.00
12632;DHT22;6381;45.748;12.106;2024-01-30T09:59:36;10.30;53.70
12632;DHT22;6381;45.748;12.106;2024-01-30T10:02:06;10.50;57.00
12632;DHT22;6381;45.748;12.106;2024-01-30T10:04:37;10.40;54.40
12632;DHT22;6381;45.748;12.106;2024-01-30T10:07:08;10.50;53.40
12632;DHT22;6381;45.748;12.106;2024-01-30T10:09:40;10.90;48.10
12632;DHT22;6381;45.748;12.106;2024-01-30T10:12:10;10.90;48.10
12632;DHT22;6381;45.748;12.106;2024-01-30T10:14:39;10.70;45.70
12632;DHT22;6381;45.748;12.106;2024-01-30T10:17:10;11.10;45.40
12632;DHT22;6381;45.748;12.106;2024-01-30T10:19:54;11.20;44.70
12632;DHT22;6381;45.748;12.106;2024-01-30T10:22:24;10.90;43.20
12632;DHT22;6381;45.748;12.106;2024-01-30T10:24:56;11.10;43.40
12632;DHT22;6381;45.748;12.106;2024-01-30T10:27:29;11.40;42.00
12632;DHT22;6381;45.748;12.106;2024-01-30T10:29:59;11.40;42.40
12632;DHT22;6381;45.748;12.106;2024-01-30T10:32:29;11.80;42.90
12632;DHT22;6381;45.748;12.106;2024-01-30T10:34:59;11.60;43.60
12632;DHT22;6381;45.748;12.106;2024-01-30T10:37:33;11.80;44.90
12632;DHT22;6381;45.748;12.106;2024-01-30T10:40:05;11.60;43.50
12632;DHT22;6381;45.748;12.106;2024-01-30T10:42:37;11.30;44.00
12632;DHT22;6381;45.748;12.106;2024-01-30T10:45:09;11.00;44.70
12632;DHT22;6381;45.748;12.106;2024-01-30T10:47:41;11.00;45.30
12632;DHT22;6381;45.748;12.106;2024-01-30T10:50:13;11.10;45.20
12632;DHT22;6381;45.748;12.106;2024-01-30T10:52:43;11.10;44.10
12632;DHT22;6381;45.748;12.106;2024-01-30T10:55:14;11.60;44.70
12632;DHT22;6381;45.748;12.106;2024-01-30T10:57:46;11.70;44.50
12632;DHT22;6381;45.748;12.106;2024-01-30T11:00:17;11.20;44.30
12632;DHT22;6381;45.748;12.106;2024-01-30T11:02:51;11.10;43.90
12632;DHT22;6381;45.748;12.106;2024-01-30T11:05:24;11.40;43.80
12632;DHT22;6381;45.748;12.106;2024-01-30T16:44:52;10.60;41.90
12632;DHT22;6381;45.748;12.106;2024-01-30T16:47:22;10.50;42.30
12632;DHT22;6381;45.748;12.106;2024-01-30T16:49:52;10.30;43.50
12632;DHT22;6381;45.748;12.106;2024-01-30T16:52:23;10.20;44.70
12632;DHT22;6381;45.748;12.106;2024-01-30T16:57:26;9.90;44.10
12632;DHT22;6381;45.748;12.106;2024-01-30T16:59:55;9.90;45.70
12632;DHT22;6381;45.748;12.106;2024-01-30T17:02:26;10.00;46.40
12632;DHT22;6381;45.748;12.106;2024-01-30T17:04:57;9.90;47.40
12632;DHT22;6381;45.748;12.106;2024-01-30T17:07:42;9.90;47.80
12632;DHT22;6381;45.748;12.106;2024-01-30T17:10:12;9.90;48.50
12632;DHT22;6381;45.748;12.106;2024-01-30T17:12:46;9.90;48.90
12632;DHT22;6381;45.748;12.106;2024-01-30T17:15:17;9.80;49.70
12632;DHT22;6381;45.748;12.106;2024-01-30T17:17:47;9.50;52.00
12632;DHT22;6381;45.748;12.106;2024-01-30T17:20:17;9.50;53.10
12632;DHT22;6381;45.748;12.106;2024-01-30T17:22:48;9.60;53.40
12632;DHT22;6381;45.748;12.106;2024-01-30T17:25:19;9.40;53.90
12632;DHT22;6381;45.748;12.106;2024-01-30T17:27:51;9.30;54.90
12632;DHT22;6381;45.748;12.106;2024-01-30T17:30:21;9.20;56.10
12632;DHT22;6381;45.748;12.106;2024-01-30T17:32:52;9.10;57.60
12632;DHT22;6381;45.748;12.106;2024-01-30T17:35:22;9.10;57.80
12632;DHT22;6381;45.748;12.106;2024-01-30T17:37:52;9.10;58.60
12632;DHT22;6381;45.748;12.106;2024-01-30T17:40:22;8.90;59.70
12632;DHT22;6381;45.748;12.106;2024-01-30T17:42:54;9.10;60.20
12632;DHT22;6381;45.748;12.106;2024-01-30T17:45:24;9.00;61.60
12632;DHT22;6381;45.748;12.106;2024-01-30T17:47:54;8.90;62.50
12632;DHT22;6381;45.748;12.106;2024-01-30T17:50:24;8.80;63.60
12632;DHT22;6381;45.748;12.106;2024-01-30T17:52:54;8.90;64.10
12632;DHT22;6381;45.748;12.106;2024-01-30T17:55:24;9.20;64.10
12632;DHT22;6381;45.748;12.106;2024-01-30T17:57:56;9.20;64.10
12632;DHT22;6381;45.748;12.106;2024-01-30T18:00:25;8.90;64.60
12632;DHT22;6381;45.748;12.106;2024-01-30T18:02:56;8.70;66.10
12632;DHT22;6381;45.748;12.106;2024-01-30T18:05:28;8.70;67.60
12632;DHT22;6381;45.748;12.106;2024-01-30T18:07:58;8.80;68.40
12632;DHT22;6381;45.748;12.106;2024-01-30T18:10:27;8.80;69.20
12632;DHT22;6381;45.748;12.106;2024-01-30T18:13:02;8.90;68.80
12632;DHT22;6381;45.748;12.106;2024-01-30T18:15:32;8.80;68.90
12632;DHT22;6381;45.748;12.106;2024-01-30T18:18:03;8.60;70.30
12632;DHT22;6381;45.748;12.106;2024-01-30T18:20:33;8.60;72.50
12632;DHT22;6381;45.748;12.106;2024-01-30T18:23:03;8.50;72.40
12632;DHT22;6381;45.748;12.106;2024-01-30T18:25:33;8.60;72.00
12632;DHT22;6381;45.748;12.106;2024-01-30T18:28:05;8.50;72.30
12632;DHT22;6381;45.748;12.106;2024-01-30T18:30:35;8.30;73.60
12632;DHT22;6381;45.748;12.106;2024-01-30T18:33:06;8.40;74.80
12632;DHT22;6381;45.748;12.106;2024-01-30T18:35:37;8.40;75.10
12632;DHT22;6381;45.748;12.106;2024-01-30T18:38:07;8.80;74.10
12632;DHT22;6381;45.748;12.106;2024-01-30T18:40:37;8.70;73.00
12632;DHT22;6381;45.748;12.106;2024-01-30T18:43:09;8.90;72.40
12632;DHT22;6381;45.748;12.106;2024-01-30T18:45:38;8.70;72.50
12632;DHT22;6381;45.748;12.106;2024-01-30T18:48:08;8.60;72.90
12632;DHT22;6381;45.748;12.106;2024-01-30T18:50:41;8.10;75.20
12632;DHT22;6381;45.748;12.106;2024-01-30T18:53:11;8.30;76.90
12632;DHT22;6381;45.748;12.106;2024-01-30T18:55:43;8.10;78.00
12632;DHT22;6381;45.748;12.106;2024-01-30T18:58:15;8.40;78.00
12632;DHT22;6381;45.748;12.106;2024-01-30T19:00:50;8.30;77.00
12632;DHT22;6381;45.748;12.106;2024-01-30T19:03:21;8.50;77.00
12632;DHT22;6381;45.748;12.106;2024-01-30T19:05:52;8.00;77.50
12632;DHT22;6381;45.748;12.106;2024-01-30T19:08:22;8.10;79.60
12632;DHT22;6381;45.748;12.106;2024-01-30T19:10:54;8.10;80.00
12632;DHT22;6381;45.748;12.106;2024-01-30T19:13:26;8.40;79.50
12632;DHT22;6381;45.748;12.106;2024-01-30T19:15:56;8.30;78.70
12632;DHT22;6381;45.748;12.106;2024-01-30T19:18:26;8.50;78.60
12632;DHT22;6381;45.748;12.106;2024-01-30T19:20:59;8.50;77.40
12632;DHT22;6381;45.748;12.106;2024-01-30T19:23:30;8.40;76.80
12632;DHT22;6381;45.748;12.106;2024-01-30T19:26:00;8.20;77.60
12632;DHT22;6381;45.748;12.106;2024-01-30T19:28:33;8.20;77.80
12632;DHT22;6381;45.748;12.106;2024-01-30T19:31:03;8.30;77.60
12632;DHT22;6381;45.748;12.106;2024-01-30T19:33:33;8.60;77.80
12632;DHT22;6381;45.748;12.106;2024-01-30T19:36:04;8.40;75.90
12632;DHT22;6381;45.748;12.106;2024-01-30T19:38:34;8.30;75.40
12632;DHT22;6381;45.748;12.106;2024-01-30T19:41:05;8.10;75.10
12632;DHT22;6381;45.748;12.106;2024-01-30T19:43:37;7.80;77.10
12632;DHT22;6381;45.748;12.106;2024-01-30T19:46:07;7.80;78.90
12632;DHT22;6381;45.748;12.106;2024-01-30T19:48:38;8.10;80.00
12632;DHT22;6381;45.748;12.106;2024-01-30T19:51:09;8.30;79.60
12632;DHT22;6381;45.748;12.106;2024-01-30T19:53:38;8.20;77.60
12632;DHT22;6381;45.748;12.106;2024-01-30T19:56:09;8.10;77.80
12632;DHT22;6381;45.748;12.106;2024-01-30T19:58:40;7.60;77.60
12632;DHT22;6381;45.748;12.106;2024-01-30T20:01:10;7.70;78.20
12632;DHT22;6381;45.748;12.106;2024-01-30T20:03:41;7.70;80.10
12632;DHT22;6381;45.748;12.106;2024-01-30T20:06:11;7.70;79.60
12632;DHT22;6381;45.748;12.106;2024-01-30T20:08:41;7.60;80.40
12632;DHT22;6381;45.748;12.106;2024-01-30T20:11:13;7.50;81.40
12632;DHT22;6381;45.748;12.106;2024-01-30T20:13:45;7.40;84.70
12632;DHT22;6381;45.748;12.106;2024-01-30T20:18:45;7.20;84.20
12632;DHT22;6381;45.748;12.106;2024-01-30T20:21:15;7.40;84.60
12632;DHT22;6381;45.748;12.106;2024-01-30T20:23:45;7.70;83.70
12632;DHT22;6381;45.748;12.106;2024-01-30T20:26:17;7.10;84.30
12632;DHT22;6381;45.748;12.106;2024-01-30T20:28:48;7.10;84.80
12632;DHT22;6381;45.748;12.106;2024-01-30T20:31:22;7.00;86.00
12632;DHT22;6381;45.748;12.106;2024-01-30T20:33:52;6.90;85.80
12632;DHT22;6381;45.748;12.106;2024-01-30T20:36:21;7.10;86.70
12632;DHT22;6381;45.748;12.106;2024-01-30T20:38:51;7.40;85.50
12632;DHT22;6381;45.748;12.106;2024-01-30T20:41:21;7.10;83.70
12632;DHT22;6381;45.748;12.106;2024-01-30T20:43:52;6.80;84.10
12632;DHT22;6381;45.748;12.106;2024-01-30T20:46:22;6.80;83.30
12632;DHT22;6381;45.748;12.106;2024-01-30T20:48:53;6.60;81.80
12632;DHT22;6381;45.748;12.106;2024-01-30T20:51:23;6.70;81.10
12632;DHT22;6381;45.748;12.106;2024-01-30T20:53:55;6.60;83.00
12632;DHT22;6381;45.748;12.106;2024-01-30T20:56:25;6.50;84.10
12632;DHT22;6381;45.748;12.106;2024-01-30T20:58:58;6.60;84.10
12632;DHT22;6381;45.748;12.106;2024-01-30T21:01:27;6.80;85.80
12632;DHT22;6381;45.748;12.106;2024-01-30T21:06:27;6.60;77.60
12632;DHT22;6381;45.748;12.106;2024-01-30T21:08:57;6.60;79.60
12632;DHT22;6381;45.748;12.106;2024-01-30T21:11:27;6.80;77.90
12632;DHT22;6381;45.748;12.106;2024-01-30T21:13:58;6.50;76.40
12632;DHT22;6381;45.748;12.106;2024-01-30T21:16:28;6.50;76.90
12632;DHT22;6381;45.748;12.106;2024-01-30T21:18:58;6.30;77.30
12632;DHT22;6381;45.748;12.106;2024-01-30T21:21:29;6.20;78.20
12632;DHT22;6381;45.748;12.106;2024-01-30T21:23:59;6.40;79.90
12632;DHT22;6381;45.748;12.106;2024-01-30T21:26:29;6.30;77.80
12632;DHT22;6381;45.748;12.106;2024-01-30T21:29:00;6.50;78.50
12632;DHT22;6381;45.748;12.106;2024-01-30T21:31:31;6.70;77.70
12632;DHT22;6381;45.748;12.106;2024-01-30T21:34:01;6.50;76.20
12632;DHT22;6381;45.748;12.106;2024-01-30T21:36:31;6.70;76.10
12632;DHT22;6381;45.748;12.106;2024-01-30T21:39:00;6.60;75.90
12632;DHT22;6381;45.748;12.106;2024-01-30T21:41:31;6.50;75.50
12632;DHT22;6381;45.748;12.106;2024-01-30T21:44:03;6.80;75.80
12632;DHT22;6381;45.748;12.106;2024-01-30T21:46:33;6.60;75.60
12632;DHT22;6381;45.748;12.106;2024-01-30T21:49:03;6.70;75.90
12632;DHT22;6381;45.748;12.106;2024-01-30T21:51:32;6.40;75.50
12632;DHT22;6381;45.748;12.106;2024-01-30T21:54:02;6.30;73.70
12632;DHT22;6381;45.748;12.106;2024-01-30T21:56:32;5.90;75.20
12632;DHT22;6381;45.748;12.106;2024-01-30T21:59:03;5.90;75.80
12632;DHT22;6381;45.748;12.106;2024-01-30T22:01:33;5.70;76.80
12632;DHT22;6381;45.748;12.106;2024-01-30T22:04:04;5.70;77.40
12632;DHT22;6381;45.748;12.106;2024-01-30T22:06:33;5.50;76.90
12632;DHT22;6381;45.748;12.106;2024-01-30T22:09:03;5.30;77.20
12632;DHT22;6381;45.748;12.106;2024-01-30T22:11:33;5.10;78.40
12632;DHT22;6381;45.748;12.106;2024-01-30T22:14:04;5.30;79.40
12632;DHT22;6381;45.748;12.106;2024-01-30T22:16:34;5.60;78.80
12632;DHT22;6381;45.748;12.106;2024-01-30T22:19:04;5.40;77.70
12632;DHT22;6381;45.748;12.106;2024-01-30T22:21:35;5.40;78.60
12632;DHT22;6381;45.748;12.106;2024-01-30T22:24:05;5.30;78.60
12632;DHT22;6381;45.748;12.106;2024-01-30T22:26:39;5.30;78.50
12632;DHT22;6381;45.748;12.106;2024-01-30T22:29:11;5.20;79.00
12632;DHT22;6381;45.748;12.106;2024-01-30T22:31:41;5.20;80.20
12632;DHT22;6381;45.748;12.106;2024-01-30T22:34:11;5.00;81.30
12632;DHT22;6381;45.748;12.106;2024-01-30T22:36:41;5.00;83.20
12632;DHT22;6381;45.748;12.106;2024-01-30T22:39:10;4.90;85.00
12632;DHT22;6381;45.748;12.106;2024-01-30T22:41:41;4.80;86.20
12632;DHT22;6381;45.748;12.106;2024-01-30T22:44:13;4.90;87.10
12632;DHT22;6381;45.748;12.106;2024-01-30T22:46:43;4.70;89.30
12632;DHT22;6381;45.748;12.106;2024-01-30T22:49:12;4.90;89.70
12632;DHT22;6381;45.748;12.106;2024-01-30T22:51:42;5.10;90.30
12632;DHT22;6381;45.748;12.106;2024-01-30T22:54:17;5.00;90.70
12632;DHT22;6381;45.748;12.106;2024-01-30T22:56:47;5.20;90.50
12632;DHT22;6381;45.748;12.106;2024-01-30T22:59:19;5.10;90.30
12632;DHT22;6381;45.748;12.106;2024-01-30T23:01:49;5.20;90.20
12632;DHT22;6381;45.748;12.106;2024-01-30T23:04:21;5.40;89.30
12632;DHT22;6381;45.748;12.106;2024-01-30T23:06:51;5.60;89.50
12632;DHT22;6381;45.748;12.106;2024-01-30T23:09:23;5.60;89.70
12632;DHT22;6381;45.748;12.106;2024-01-30T23:11:53;5.70;86.80
12632;DHT22;6381;45.748;12.106;2024-01-30T23:14:25;5.80;83.40
12632;DHT22;6381;45.748;12.106;2024-01-30T23:16:55;5.80;81.10
12632;DHT22;6381;45.748;12.106;2024-01-30T23:19:24;5.60;80.40
12632;DHT22;6381;45.748;12.106;2024-01-30T23:21:55;5.70;82.00
12632;DHT22;6381;45.748;12.106;2024-01-30T23:24:26;5.70;82.00
12632;DHT22;6381;45.748;12.106;2024-01-30T23:26:56;5.70;81.40
12632;DHT22;6381;45.748;12.106;2024-01-30T23:29:27;5.40;81.10
12632;DHT22;6381;45.748;12.106;2024-01-30T23:31:57;5.50;81.60
12632;DHT22;6381;45.748;12.106;2024-01-30T23:34:27;5.20;83.00
12632;DHT22;6381;45.748;12.106;2024-01-30T23:36:57;5.00;86.80
12632;DHT22;6381;45.748;12.106;2024-01-30T23:39:27;5.00;88.30
12632;DHT22;6381;45.748;12.106;2024-01-30T23:41:57;5.00;88.50
12632;DHT22;6381;45.748;12.106;2024-01-30T23:44:28;5.10;87.20
12632;DHT22;6381;45.748;12.106;2024-01-30T23:46:59;5.10;87.60
12632;DHT22;6381;45.748;12.106;2024-01-30T23:49:29;5.10;85.80
12632;DHT22;6381;45.748;12.106;2024-01-30T23:52:01;5.10;84.60
12632;DHT22;6381;45.748;12.106;2024-01-30T23:54:31;5.00;83.60
12632;DHT22;6381;45.748;12.106;2024-01-30T23:57:03;5.00;84.20
12632;DHT22;6381;45.748;12.106;2024-01-30T23:59:35;5.00;84.20
